createdAt,value
2022-08-20T00:00:14.772Z,23.21
2022-08-20T00:02:43.841Z,23.17
2022-08-20T00:05:11.515Z,23.16
2022-08-20T00:07:38.840Z,23.11
2022-08-20T00:10:07.080Z,23.10
2022-08-20T00:12:34.657Z,23.11
2022-08-20T00:15:02.362Z,23.14
2022-08-20T00:17:39.846Z,23.17
2022-08-20T00:20:09.585Z,23.22
2022-08-20T00:22:36.733Z,23.23
2022-08-20T00:25:07.255Z,23.23
2022-08-20T00:27:34.430Z,23.23
2022-08-20T00:30:01.265Z,23.24
2022-08-20T00:32:30.062Z,23.25
2022-08-20T00:34:57.226Z,23.23
2022-08-20T00:37:24.099Z,23.20
2022-08-20T00:39:50.931Z,23.09
2022-08-20T00:42:18.175Z,22.97
2022-08-20T00:44:46.152Z,22.90
2022-08-20T00:47:12.994Z,22.81
2022-08-20T00:49:40.111Z,22.70
2022-08-20T00:52:09.317Z,22.68
2022-08-20T00:54:41.840Z,22.66
2022-08-20T00:57:11.765Z,22.55
2022-08-20T00:59:40.218Z,22.52
2022-08-20T01:02:09.496Z,22.52
2022-08-20T01:04:37.203Z,22.50
2022-08-20T01:07:05.449Z,22.45
2022-08-20T01:09:49.552Z,22.41
2022-08-20T01:12:20.323Z,22.37
2022-08-20T01:14:47.584Z,22.36
2022-08-20T01:17:17.752Z,22.38
2022-08-20T01:19:48.176Z,22.34
2022-08-20T01:22:37.491Z,22.33
2022-08-20T01:25:07.914Z,22.33
2022-08-20T01:27:35.154Z,22.28
2022-08-20T01:30:10.257Z,22.09
2022-08-20T01:32:37.171Z,21.90
2022-08-20T01:35:04.560Z,21.74
2022-08-20T01:37:31.867Z,21.65
2022-08-20T01:39:58.866Z,21.69
2022-08-20T01:42:50.368Z,21.78
2022-08-20T01:45:29.259Z,21.80
2022-08-20T01:47:58.310Z,21.77
2022-08-20T01:50:27.742Z,21.77
2022-08-20T01:53:12.809Z,21.77
2022-08-20T01:55:39.905Z,21.74
2022-08-20T01:58:07.054Z,21.76
2022-08-20T02:00:35.680Z,21.81
2022-08-20T02:03:05.527Z,21.76
2022-08-20T02:05:36.010Z,21.83
2022-08-20T02:08:03.031Z,21.75
2022-08-20T02:10:31.742Z,21.73
2022-08-20T02:13:00.754Z,21.68
2022-08-20T02:15:47.463Z,21.61
2022-08-20T02:18:15.737Z,21.55
2022-08-20T02:20:43.692Z,21.55
2022-08-20T02:23:12.248Z,21.57
2022-08-20T02:25:40.424Z,21.58
2022-08-20T02:28:09.259Z,21.59
2022-08-20T02:30:39.253Z,21.57
2022-08-20T02:33:08.114Z,21.49
2022-08-20T02:35:35.404Z,21.47
2022-08-20T02:38:02.815Z,21.48
2022-08-20T02:40:31.511Z,21.48
2022-08-20T02:42:59.550Z,21.49
2022-08-20T02:45:26.967Z,21.48
2022-08-20T02:47:54.436Z,21.44
2022-08-20T02:50:21.916Z,21.48
2022-08-20T02:52:51.822Z,21.50
2022-08-20T02:55:27.497Z,21.52
2022-08-20T02:57:58.599Z,21.55
2022-08-20T03:00:27.322Z,21.53
2022-08-20T03:02:54.128Z,21.52
2022-08-20T03:05:21.095Z,21.48
2022-08-20T03:07:49.873Z,21.49
2022-08-20T03:10:17.292Z,21.49
2022-08-20T03:12:44.142Z,21.50
2022-08-20T03:15:17.648Z,21.50
2022-08-20T03:17:45.524Z,21.47
2022-08-20T03:20:13.367Z,21.48
2022-08-20T03:22:40.641Z,21.47
2022-08-20T03:25:07.695Z,21.46
2022-08-20T03:27:36.383Z,21.39
2022-08-20T03:30:08.691Z,21.36
2022-08-20T03:32:36.358Z,21.36
2022-08-20T03:35:04.967Z,21.37
2022-08-20T03:37:32.832Z,21.35
2022-08-20T03:40:00.416Z,21.29
2022-08-20T03:42:27.463Z,21.24
2022-08-20T03:44:58.997Z,21.22
2022-08-20T03:47:27.031Z,21.20
2022-08-20T03:49:58.244Z,21.17
2022-08-20T03:52:25.265Z,21.21
2022-08-20T03:54:52.393Z,21.22
2022-08-20T03:57:19.215Z,21.28
2022-08-20T03:59:46.020Z,21.34
2022-08-20T04:02:17.156Z,21.38
2022-08-20T04:04:43.964Z,21.43
2022-08-20T04:07:12.088Z,21.48
2022-08-20T04:09:40.044Z,21.45
2022-08-20T04:12:09.778Z,21.52
2022-08-20T04:14:36.663Z,21.59
2022-08-20T04:17:04.834Z,21.63
2022-08-20T04:19:34.413Z,21.68
2022-08-20T04:22:01.981Z,21.69
2022-08-20T04:24:32.635Z,21.68
2022-08-20T04:27:00.847Z,21.73
2022-08-20T04:29:31.970Z,21.81
2022-08-20T04:32:00.727Z,21.74
2022-08-20T04:34:30.577Z,21.82
2022-08-20T04:36:57.433Z,21.84
2022-08-20T04:39:24.324Z,21.93
2022-08-20T04:41:51.431Z,21.95
2022-08-20T04:44:18.363Z,21.99
2022-08-20T04:46:45.243Z,22.00
2022-08-20T04:52:03.354Z,22.01
2022-08-20T04:54:31.472Z,22.07
2022-08-20T04:57:01.076Z,22.12
2022-08-20T04:59:27.917Z,22.04
2022-08-20T05:01:55.059Z,21.97
2022-08-20T05:04:21.891Z,21.87
2022-08-20T05:06:49.654Z,21.89
2022-08-20T05:09:16.995Z,21.95
2022-08-20T05:11:45.987Z,22.02
2022-08-20T05:14:14.020Z,22.08
2022-08-20T05:16:41.291Z,22.18
2022-08-20T05:19:09.661Z,22.21
2022-08-20T05:21:37.236Z,22.20
2022-08-20T05:24:05.269Z,22.24
2022-08-20T05:27:35.700Z,22.35
2022-08-20T05:30:07.268Z,22.39
2022-08-20T05:32:44.714Z,22.55
2022-08-20T05:35:12.048Z,23.03
2022-08-20T05:37:41.262Z,23.44
2022-08-20T05:40:10.545Z,23.83
2022-08-20T05:42:38.125Z,24.13
2022-08-20T05:45:11.042Z,24.67
2022-08-20T05:47:42.727Z,24.87
2022-08-20T05:50:11.066Z,24.98
2022-08-20T05:52:47.909Z,25.25
2022-08-20T05:55:14.902Z,25.65
2022-08-20T05:57:42.141Z,25.83
2022-08-20T06:00:10.851Z,26.06
2022-08-20T06:03:00.717Z,26.68
2022-08-20T06:05:27.953Z,27.41
2022-08-20T06:07:59.446Z,27.72
2022-08-20T06:10:35.903Z,28.71
2022-08-20T06:13:03.175Z,29.17
2022-08-20T06:15:30.873Z,29.60
2022-08-20T06:17:58.416Z,30.15
2022-08-20T06:20:26.134Z,30.49
2022-08-20T06:22:53.120Z,30.66
2022-08-20T06:25:20.376Z,30.52
2022-08-20T06:27:47.267Z,30.41
2022-08-20T06:30:16.097Z,30.70
2022-08-20T06:32:43.292Z,31.14
2022-08-20T06:35:10.641Z,31.32
2022-08-20T06:37:38.535Z,31.40
2022-08-20T06:40:09.065Z,31.76
2022-08-20T06:42:37.472Z,31.92
2022-08-20T06:45:07.400Z,32.30
2022-08-20T06:47:38.930Z,32.60
2022-08-20T06:50:07.860Z,32.88
2022-08-20T06:53:03.134Z,32.85
2022-08-20T06:55:26.148Z,32.26
2022-08-20T06:57:58.340Z,32.17
2022-08-20T07:00:25.443Z,32.15
2022-08-20T07:02:52.393Z,32.45
2022-08-20T07:05:19.641Z,32.72
2022-08-20T07:07:47.369Z,32.08
2022-08-20T07:10:15.366Z,31.24
2022-08-20T07:12:44.974Z,30.53
2022-08-20T07:15:15.213Z,30.32
2022-08-20T07:17:42.447Z,30.15
2022-08-20T07:20:11.021Z,30.02
2022-08-20T07:22:37.877Z,29.80
2022-08-20T07:25:06.414Z,29.85
2022-08-20T07:27:33.540Z,29.63
2022-08-20T07:30:18.946Z,29.58
2022-08-20T07:32:47.676Z,29.91
2022-08-20T07:35:16.249Z,30.03
2022-08-20T07:37:44.614Z,29.77
2022-08-20T07:40:14.651Z,29.57
2022-08-20T07:42:41.703Z,29.24
2022-08-20T07:45:10.918Z,29.08
2022-08-20T07:47:39.376Z,28.77
2022-08-20T07:50:06.959Z,28.39
2022-08-20T07:52:36.894Z,28.84
2022-08-20T07:55:08.617Z,29.25
2022-08-20T07:57:35.678Z,29.87
2022-08-20T08:00:03.324Z,30.46
2022-08-20T08:02:36.784Z,30.83
2022-08-20T08:05:04.876Z,30.81
2022-08-20T08:07:32.682Z,30.71
2022-08-20T08:10:01.741Z,30.58
2022-08-20T08:12:35.084Z,30.37
2022-08-20T08:15:04.482Z,29.66
2022-08-20T08:17:31.714Z,29.46
2022-08-20T08:19:59.387Z,29.18
2022-08-20T08:22:26.553Z,29.16
2022-08-20T08:24:57.357Z,29.29
2022-08-20T08:27:24.919Z,28.74
2022-08-20T08:29:52.067Z,28.57
2022-08-20T08:32:19.085Z,28.63
2022-08-20T08:34:48.176Z,28.37
2022-08-20T08:37:26.956Z,28.26
2022-08-20T08:39:57.221Z,28.02
2022-08-20T08:42:27.283Z,27.93
2022-08-20T08:44:54.648Z,27.88
2022-08-20T08:47:26.492Z,27.87
2022-08-20T08:49:53.915Z,27.89
2022-08-20T08:52:22.952Z,27.83
2022-08-20T08:54:52.766Z,27.85
2022-08-20T08:57:20.283Z,27.92
2022-08-20T09:00:03.924Z,27.95
2022-08-20T09:02:34.396Z,27.98
2022-08-20T09:05:06.425Z,27.55
2022-08-20T09:07:33.642Z,27.39
2022-08-20T09:10:02.458Z,27.45
2022-08-20T09:12:30.744Z,27.45
2022-08-20T09:14:58.367Z,27.41
2022-08-20T09:17:25.489Z,27.39
2022-08-20T09:19:52.643Z,27.29
2022-08-20T09:22:21.318Z,27.18
2022-08-20T09:24:48.652Z,27.25
2022-08-20T09:27:15.619Z,27.03
2022-08-20T09:29:42.815Z,27.06
2022-08-20T09:32:10.451Z,27.23
2022-08-20T09:34:44.872Z,27.26
2022-08-20T09:37:12.207Z,27.11
2022-08-20T09:39:39.365Z,27.12
2022-08-20T09:42:11.148Z,27.20
2022-08-20T09:44:39.614Z,27.25
2022-08-20T09:47:06.551Z,27.23
2022-08-20T09:49:33.834Z,27.13
2022-08-20T09:52:01.452Z,27.26
2022-08-20T09:54:30.219Z,27.36
2022-08-20T09:56:58.163Z,27.42
2022-08-20T09:59:25.678Z,27.47
2022-08-20T10:01:53.478Z,27.37
2022-08-20T10:04:20.388Z,27.16
2022-08-20T10:06:47.630Z,27.13
2022-08-20T10:09:14.885Z,27.07
2022-08-20T10:11:41.979Z,26.97
2022-08-20T10:14:09.317Z,27.06
2022-08-20T10:16:36.357Z,27.11
2022-08-20T10:19:04.174Z,27.13
2022-08-20T10:21:35.436Z,26.92
2022-08-20T10:24:05.525Z,27.01
2022-08-20T10:26:33.011Z,27.06
2022-08-20T10:28:59.933Z,27.10
2022-08-20T10:31:26.847Z,27.37
2022-08-20T10:33:54.007Z,27.73
2022-08-20T10:36:20.839Z,27.94
2022-08-20T10:38:49.151Z,28.23
2022-08-20T10:41:16.444Z,28.40
2022-08-20T10:43:43.923Z,28.27
2022-08-20T10:46:10.755Z,28.31
2022-08-20T10:48:37.943Z,28.38
2022-08-20T10:51:04.855Z,28.22
2022-08-20T10:53:32.862Z,28.26
2022-08-20T10:56:00.127Z,28.35
2022-08-20T10:58:29.003Z,28.31
2022-08-20T11:01:07.237Z,28.43
2022-08-20T11:03:34.897Z,28.50
2022-08-20T11:06:02.980Z,28.06
2022-08-20T11:08:34.158Z,27.98
2022-08-20T11:11:05.451Z,27.88
2022-08-20T11:13:34.210Z,27.84
2022-08-20T11:16:01.899Z,27.84
2022-08-20T11:18:29.282Z,27.74
2022-08-20T11:20:56.956Z,27.78
2022-08-20T11:23:23.882Z,27.76
2022-08-20T11:25:50.889Z,27.62
2022-08-20T11:28:30.985Z,27.44
2022-08-20T11:30:59.693Z,27.44
2022-08-20T11:33:27.202Z,27.43
2022-08-20T11:35:55.375Z,27.34
2022-08-20T11:38:23.381Z,27.39
2022-08-20T11:40:50.577Z,27.43
2022-08-20T11:43:18.274Z,27.47
2022-08-20T11:45:46.466Z,27.50
2022-08-20T11:48:13.709Z,27.40
2022-08-20T11:50:40.597Z,27.23
2022-08-20T11:53:08.024Z,27.20
2022-08-20T11:55:37.181Z,27.26
2022-08-20T11:58:06.137Z,27.15
2022-08-20T12:00:34.185Z,27.28
2022-08-20T12:03:02.571Z,27.26
2022-08-20T12:05:32.340Z,27.18
2022-08-20T12:08:02.656Z,27.31
2022-08-20T12:10:30.691Z,27.39
2022-08-20T12:12:57.752Z,27.40
2022-08-20T12:15:26.829Z,27.45
2022-08-20T12:17:54.478Z,27.63
2022-08-20T12:20:21.901Z,28.05
2022-08-20T12:22:48.798Z,27.86
2022-08-20T12:25:16.156Z,27.56
2022-08-20T12:27:43.066Z,27.59
2022-08-20T12:30:12.484Z,27.62
2022-08-20T12:32:40.399Z,27.72
2022-08-20T12:35:07.677Z,27.74
2022-08-20T12:37:34.983Z,27.95
2022-08-20T12:40:04.907Z,27.95
2022-08-20T12:42:32.255Z,27.89
2022-08-20T12:44:59.686Z,28.12
2022-08-20T12:47:31.264Z,28.33
2022-08-20T12:50:05.434Z,28.54
2022-08-20T12:52:33.482Z,28.64
2022-08-20T12:55:00.913Z,28.89
2022-08-20T12:57:32.938Z,29.06
2022-08-20T13:00:03.743Z,28.84
2022-08-20T13:02:33.049Z,28.66
2022-08-20T13:05:04.909Z,28.62
2022-08-20T13:07:32.767Z,28.61
2022-08-20T13:10:00.482Z,28.45
2022-08-20T13:12:27.432Z,28.30
2022-08-20T13:14:56.390Z,28.26
2022-08-20T13:17:37.981Z,28.23
2022-08-20T13:20:10.471Z,28.34
2022-08-20T13:22:37.642Z,28.43
2022-08-20T13:25:05.233Z,28.54
2022-08-20T13:27:33.131Z,28.44
2022-08-20T13:30:00.571Z,28.35
2022-08-20T13:32:27.476Z,28.31
2022-08-20T13:34:54.403Z,28.09
2022-08-20T13:37:25.999Z,27.96
2022-08-20T13:39:57.843Z,27.88
2022-08-20T13:42:25.754Z,27.68
2022-08-20T13:44:53.414Z,27.60
2022-08-20T13:47:29.706Z,27.58
2022-08-20T13:49:59.249Z,27.59
2022-08-20T13:52:26.782Z,27.63
2022-08-20T13:54:54.134Z,27.57
2022-08-20T13:57:22.601Z,27.54
2022-08-20T13:59:50.372Z,27.41
2022-08-20T14:02:17.896Z,27.38
2022-08-20T14:04:45.682Z,27.23
2022-08-20T14:07:13.415Z,27.05
2022-08-20T14:09:41.517Z,27.24
2022-08-20T14:12:09.531Z,26.95
2022-08-20T14:14:36.487Z,26.92
2022-08-20T14:17:39.156Z,26.86
2022-08-20T14:20:11.620Z,26.80
2022-08-20T14:22:38.600Z,26.67
2022-08-20T14:25:06.522Z,26.64
2022-08-20T14:27:34.099Z,26.65
2022-08-20T14:30:01.406Z,26.66
2022-08-20T14:32:30.560Z,26.62
2022-08-20T14:34:59.383Z,26.56
2022-08-20T14:37:28.439Z,26.47
2022-08-20T14:39:59.562Z,26.43
2022-08-20T14:42:28.597Z,26.13
2022-08-20T14:44:56.175Z,25.98
2022-08-20T14:47:24.862Z,26.02
2022-08-20T14:49:53.542Z,25.98
2022-08-20T14:52:21.463Z,25.91
2022-08-20T14:54:49.814Z,25.69
2022-08-20T14:57:17.830Z,25.68
2022-08-20T14:59:44.865Z,25.62
2022-08-20T15:02:12.669Z,25.61
2022-08-20T15:04:40.820Z,25.51
2022-08-20T15:07:13.687Z,25.47
2022-08-20T15:09:43.422Z,25.42
2022-08-20T15:12:10.251Z,25.44
2022-08-20T15:14:39.264Z,25.19
2022-08-20T15:17:06.661Z,25.21
2022-08-20T15:19:35.851Z,25.17
2022-08-20T15:22:02.955Z,25.21
2022-08-20T15:24:30.419Z,25.21
2022-08-20T15:26:57.943Z,25.19
2022-08-20T15:29:24.795Z,25.10
2022-08-20T15:31:52.327Z,25.04
2022-08-20T15:34:19.322Z,25.10
2022-08-20T15:36:47.306Z,25.11
2022-08-20T15:39:14.413Z,24.96
2022-08-20T15:41:41.328Z,24.96
2022-08-20T15:44:08.315Z,24.79
2022-08-20T15:46:39.009Z,24.62
2022-08-20T15:49:09.674Z,24.60
2022-08-20T15:51:45.105Z,24.41
2022-08-20T15:54:21.785Z,24.43
2022-08-20T15:57:10.192Z,24.37
2022-08-20T15:59:47.605Z,24.40
2022-08-20T16:02:30.065Z,24.34
2022-08-20T16:05:15.190Z,24.27
2022-08-20T16:07:58.810Z,24.11
2022-08-20T16:10:30.438Z,23.97
2022-08-20T16:12:59.192Z,23.88
2022-08-20T16:15:34.054Z,23.70
2022-08-20T16:18:07.332Z,23.59
2022-08-20T16:20:35.854Z,23.55
2022-08-20T16:23:04.119Z,23.42
2022-08-20T16:25:34.207Z,23.47
2022-08-20T16:28:20.001Z,23.43
2022-08-20T16:30:48.324Z,23.44
2022-08-20T16:33:29.238Z,23.43
2022-08-20T16:35:59.052Z,23.43
2022-08-20T16:38:36.631Z,23.43
2022-08-20T16:41:12.162Z,23.38
2022-08-20T16:43:53.313Z,23.44
2022-08-20T16:46:21.854Z,23.39
2022-08-20T16:48:57.998Z,23.33
2022-08-20T16:51:36.734Z,23.19
2022-08-20T16:54:05.729Z,23.12
2022-08-20T16:56:34.461Z,23.14
2022-08-20T16:59:02.206Z,23.13
2022-08-20T17:01:29.093Z,23.06
2022-08-20T17:03:56.466Z,22.98
2022-08-20T17:06:23.299Z,22.88
2022-08-20T17:08:51.867Z,22.84
2022-08-20T17:11:37.245Z,22.80
2022-08-20T17:14:04.022Z,22.83
2022-08-20T17:16:37.089Z,22.82
2022-08-20T17:19:12.986Z,22.71
2022-08-20T17:21:40.855Z,22.59
2022-08-20T17:24:16.792Z,22.61
2022-08-20T17:26:46.516Z,22.61
2022-08-20T17:29:15.635Z,22.61
2022-08-20T17:31:45.010Z,22.62
2022-08-20T17:34:25.282Z,22.59
2022-08-20T17:36:55.417Z,22.50
2022-08-20T17:39:24.436Z,22.52
2022-08-20T17:41:54.524Z,22.55
2022-08-20T17:44:25.896Z,22.48
2022-08-20T17:46:53.887Z,22.43
2022-08-20T17:49:26.425Z,22.47
2022-08-20T17:51:54.850Z,22.41
2022-08-20T17:54:23.728Z,22.41
2022-08-20T17:56:53.704Z,22.39
2022-08-20T17:59:59.869Z,22.38
2022-08-20T18:02:14.969Z,22.37
2022-08-20T18:04:42.686Z,22.35
2022-08-20T18:07:16.000Z,22.36
2022-08-20T18:09:54.752Z,22.40
2022-08-20T18:12:33.869Z,22.41
2022-08-20T18:15:25.103Z,22.42
2022-08-20T18:17:55.193Z,22.40
2022-08-20T18:20:37.310Z,22.48
2022-08-20T18:23:13.151Z,22.45
2022-08-20T18:25:43.937Z,22.37
2022-08-20T18:28:36.438Z,22.34
2022-08-20T18:31:09.824Z,22.25
2022-08-20T18:33:53.069Z,22.22
2022-08-20T18:37:13.798Z,22.23
2022-08-20T18:39:46.431Z,22.29
2022-08-20T18:42:24.726Z,22.28
2022-08-20T18:44:53.276Z,22.26
2022-08-20T18:47:26.515Z,22.28
2022-08-20T18:50:02.712Z,22.27
2022-08-20T18:52:41.593Z,22.30
2022-08-20T18:55:28.013Z,22.35
2022-08-20T18:58:00.611Z,22.13
2022-08-20T19:00:33.360Z,21.95
2022-08-20T19:03:07.580Z,21.95
2022-08-20T19:05:44.865Z,21.96
2022-08-20T19:08:18.017Z,21.94
2022-08-20T19:10:53.998Z,21.97
2022-08-20T19:13:26.533Z,21.97
2022-08-20T19:15:57.086Z,21.99
2022-08-20T19:18:33.036Z,21.95
2022-08-20T19:21:02.309Z,21.93
2022-08-20T19:23:32.156Z,21.83
2022-08-20T19:26:03.361Z,21.83
2022-08-20T19:28:31.549Z,21.79
2022-08-20T19:31:17.717Z,21.80
2022-08-20T19:33:47.967Z,21.73
2022-08-20T19:36:22.346Z,21.69
2022-08-20T19:38:56.035Z,21.78
2022-08-20T19:41:30.981Z,21.77
2022-08-20T19:43:59.079Z,21.71
2022-08-20T19:46:36.788Z,21.68
2022-08-20T19:49:22.719Z,21.67
2022-08-20T19:52:09.062Z,21.70
2022-08-20T19:54:44.280Z,21.64
2022-08-20T19:57:12.996Z,21.55
2022-08-20T19:59:40.451Z,21.43
2022-08-20T20:02:20.434Z,21.43
2022-08-20T20:04:55.474Z,21.45
2022-08-20T20:07:29.796Z,21.37
2022-08-20T20:09:58.115Z,21.31
2022-08-20T20:12:25.323Z,21.31
2022-08-20T20:14:53.367Z,21.18
2022-08-20T20:17:24.380Z,21.19
2022-08-20T20:19:59.545Z,21.16
2022-08-20T20:22:32.363Z,21.26
2022-08-20T20:25:02.814Z,21.27
2022-08-20T20:27:32.146Z,21.27
2022-08-20T20:30:10.614Z,21.25
2022-08-20T20:32:47.880Z,21.26
2022-08-20T20:35:32.388Z,21.22
2022-08-20T20:38:02.186Z,21.24
2022-08-20T20:40:35.856Z,21.14
2022-08-20T20:43:12.073Z,20.99
2022-08-20T20:45:41.139Z,21.08
2022-08-20T20:48:11.100Z,20.96
2022-08-20T20:50:44.750Z,20.91
2022-08-20T20:53:17.523Z,20.84
2022-08-20T20:55:59.651Z,20.91
2022-08-20T20:58:34.522Z,20.82
2022-08-20T21:01:02.074Z,20.88
2022-08-20T21:03:32.574Z,20.90
2022-08-20T21:06:04.598Z,20.89
2022-08-20T21:08:43.661Z,20.89
2022-08-20T21:11:11.622Z,20.92
2022-08-20T21:13:38.940Z,20.86
2022-08-20T21:16:07.188Z,20.83
2022-08-20T21:18:36.630Z,20.81
2022-08-20T21:21:07.731Z,20.77
2022-08-20T21:23:39.939Z,20.84
2022-08-20T21:26:09.180Z,20.73
2022-08-20T21:28:36.049Z,20.66
2022-08-20T21:31:04.031Z,20.67
2022-08-20T21:33:32.099Z,20.68
2022-08-20T21:35:58.953Z,20.66
2022-08-20T21:38:25.910Z,20.65
2022-08-20T21:40:53.135Z,20.69
2022-08-20T21:43:23.207Z,20.66
2022-08-20T21:45:51.077Z,20.60
2022-08-20T21:48:18.734Z,20.54
2022-08-20T21:50:45.620Z,20.55
2022-08-20T21:53:13.367Z,20.47
2022-08-20T21:55:40.953Z,20.49
2022-08-20T21:58:08.605Z,20.53
2022-08-20T22:00:47.753Z,20.55
2022-08-20T22:03:15.371Z,20.45
2022-08-20T22:05:42.374Z,20.49
2022-08-20T22:08:09.923Z,20.49
2022-08-20T22:10:37.716Z,20.49
2022-08-20T22:13:04.846Z,20.46
2022-08-20T22:15:31.809Z,20.46
2022-08-20T22:17:59.675Z,20.45
2022-08-20T22:20:26.742Z,20.45
2022-08-20T22:22:53.756Z,20.44
2022-08-20T22:25:21.225Z,20.41
2022-08-20T22:27:48.298Z,20.40
2022-08-20T22:30:15.212Z,20.29
2022-08-20T22:32:52.154Z,20.27
2022-08-20T22:35:19.770Z,20.27
2022-08-20T22:37:47.417Z,20.29
2022-08-20T22:40:14.777Z,20.28
2022-08-20T22:42:41.755Z,20.35
2022-08-20T22:45:14.630Z,20.33
2022-08-20T22:47:42.305Z,20.29
2022-08-20T22:50:11.457Z,20.32
2022-08-20T22:52:39.424Z,20.30
2022-08-20T22:55:11.310Z,20.37
2022-08-20T22:57:43.945Z,20.31
2022-08-20T23:00:12.943Z,20.33
2022-08-20T23:02:45.256Z,20.33
2022-08-20T23:05:14.899Z,20.39
2022-08-20T23:07:44.603Z,20.34
2022-08-20T23:10:11.809Z,20.34
2022-08-20T23:12:40.442Z,20.33
2022-08-20T23:15:10.318Z,20.33
2022-08-20T23:17:41.255Z,20.31
2022-08-20T23:20:10.857Z,20.28
2022-08-20T23:22:38.252Z,20.24
2022-08-20T23:25:06.049Z,20.28
2022-08-20T23:27:35.588Z,20.25
2022-08-20T23:30:02.684Z,20.16
2022-08-20T23:32:30.696Z,20.09
2022-08-20T23:34:58.200Z,20.05
2022-08-20T23:37:25.266Z,19.97
2022-08-20T23:39:53.607Z,19.89
2022-08-20T23:42:22.207Z,19.88
2022-08-20T23:44:49.214Z,19.86
2022-08-20T23:47:20.255Z,19.81
2022-08-20T23:49:49.642Z,19.77
2022-08-20T23:52:16.565Z,19.69
2022-08-20T23:54:43.513Z,19.71
2022-08-20T23:57:11.033Z,19.65
2022-08-20T23:59:39.184Z,19.64
